San Francisco, CA

9:07 PM PDT on October 25, 2014 (GMT -0700)
SOMA - Near Van Ness | Change Station
CLOSE
Current Station
Personal Weather Station
Location: San Francisco, CA
Elevation: 49 ft
Nearby Weather Stations

Elev 49 ft 37.77 °N, 122.42 °W | Updated 5 seconds ago

Partly Cloudy
Partly Cloudy
61.9 °F
Feels Like 61.9 °F
N
1.0
Wind Variable Wind from ESE
Gusts 0.0 mph

Today
High -- | Low -- °F
--% Chance of Precip.
Yesterday
High -- | Low -- °F
Precip. -- in
7:27 AM 6:18 PM
Waxing Crescent, 6% visible
Pressure 30.11 in
Visibility 10.0 miles
Clouds Scattered Clouds 2000 ft
Scattered Clouds 2800 ft
Mostly Cloudy 4700 ft
Dew Point 58 °F
Humidity 87%
Rainfall 0.17 in
Snow Depth Not available.
UV 0 out of 12
Pollen .10 out of 12
Ozone Good
PM2.5 Good
Flu Activity Sporadic
METAR KSFO 260356Z 00000KT 10SM SCT020 SCT028 BKN047 18/14 A3011 RMK AO2 SLP196 T01830144 $

More Conditions Fewer Conditions

Pressure 30.11 in
Visibility 10.0 miles
Clouds Scattered Clouds 2000 ft
Scattered Clouds 2800 ft
Mostly Cloudy 4700 ft
Dew Point 58 °F
Humidity 87%
Rainfall 0.17 in
Snow Depth Not available.
UV 0 out of 12
Pollen .10 out of 12
Ozone Good
PM2.5 Good
Flu Activity Sporadic
METAR KSFO 260356Z 00000KT 10SM SCT020 SCT028 BKN047 18/14 A3011 RMK AO2 SLP196 T01830144 $

More Conditions Fewer Conditions

10-Day Weather Forecast

Almanac

Astronomy

Oct. 25, 2014 Rise Set
Actual Time 7:27 AM PDT 6:18 PM PDT
Civil Twilight 7:01 AM PDT 6:45 PM PDT
Nautical Twilight 6:30 AM PDT 7:16 PM PDT
Astronomical Twilight 5:59 AM PDT 7:46 PM PDT
Moon 9:10 AM PDT (10/25) 7:47 PM PDT (10/25)
Length of Visible Light 11h 44m
Length of Day
10h 51m
Tomorrow will be 2m 14s shorter.
Waxing Crescent, 6% of the Moon is Illuminated
Oct 26
Waxing Crescent
Oct 30
First Quarter
Nov 6
Full
Nov 14
Last Quarter
Nov 22
New

Today's Extremes

State Highs State Lows

Community

WunderPhotos

Upload Photos

1,765,106 photos uploaded!

Nearby

Air Quality

  Air Quality AQ Index Pollutant
Yesterday Good
OZONE
Yesterday Good
PM2.5
Current Good
PM2.5
Current Good
OZONE
Saturday Good
OZONE
Sunday Good
OZONE
Monday Moderate
PM2.5
Tuesday Moderate
PM2.5
Wednesday Moderate
PM2.5

Snow Depth

Station Depth Elevation
Carson Pass 0 in 8500 ft
Echo Peak 3 in 7800 ft
Rubicon #2 1 in 7500 ft
Fallen Leaf 0 in 6300 ft
Ebbetts Pass 3 in 8700 ft

Earthquake Activity

City Distance Mag. Time & Date
Antioch, California 38 miles 2.7 6:42 AM PDT
2014-10-25
Deer Park, California 51 miles 2.8 6:40 AM PDT
2014-10-25
Coalinga, California 162 miles 2.5 11:01 PM PDT
2014-10-24
Minimum magnitude displayed is 2.5.

Coastal Water Temperatures

Place Temperature
No Stations Reporting

Nearby Weather Stations